West Brompton, United Kingdom
Current Conditions -  °F | °C
As of 8:50 AM on Saturday 22 Nov 2014 (Local Time) from EGLC Reporting Station
Few Clouds Few Clouds  
Wind Chill: 55°   Ceiling: Unl
Heat Index: 55°   Visibility: 4mi
Dew Point: 54°   Wind: 6mph
Humidity: 94%   Direction: 170°S
Pressure: 29.91"   Gusts: NA
Location:  51.49°N, 0.18°W
Report Text: EGLC 220850Z 17005KT 120V210 6000 FEW009 13/12 Q1013
Loading
Personal Weather Stations






























Interactive Weather Map New forecast layout! Learn more

10-Day Weather Forecast

Advertisements
Track Severe Weather on mobile